createdAt,value
2017-11-23T00:00:55.708Z,54.0
2017-11-23T00:10:54.578Z,54.6
2017-11-23T00:20:54.715Z,63.4
2017-11-23T00:30:55.752Z,57.8
2017-11-23T00:40:54.712Z,54.0
2017-11-23T00:50:54.989Z,52.4
2017-11-23T01:00:54.936Z,56.2
2017-11-23T01:10:54.854Z,56.2
2017-11-23T01:20:54.888Z,58.2
2017-11-23T01:30:55.224Z,56.9
2017-11-23T01:40:55.971Z,56.5
2017-11-23T01:50:55.115Z,55.9
2017-11-23T02:00:54.969Z,59.4
2017-11-23T02:10:54.864Z,65.3
2017-11-23T02:20:55.268Z,58.3
2017-11-23T02:30:55.901Z,58.8
2017-11-23T02:40:54.965Z,58.3
2017-11-23T02:50:54.874Z,57.5
2017-11-23T03:00:55.331Z,54.8
2017-11-23T03:10:55.484Z,51.1
2017-11-23T03:20:54.725Z,51.8
2017-11-23T03:30:54.771Z,50.7
2017-11-23T03:40:55.187Z,53.3
2017-11-23T03:50:56.030Z,50.4
2017-11-23T04:00:54.887Z,47.5
2017-11-23T04:10:54.799Z,48.9
2017-11-23T04:20:54.794Z,46.5
2017-11-23T04:30:54.637Z,47.0
2017-11-23T04:40:55.761Z,47.4
2017-11-23T04:50:55.354Z,46.2
2017-11-23T05:00:55.353Z,44.6
2017-11-23T05:10:55.561Z,45.7
2017-11-23T05:20:54.543Z,47.4
2017-11-23T05:30:55.111Z,43.7
2017-11-23T05:40:55.667Z,40.8
2017-11-23T05:50:54.552Z,40.8
2017-11-23T06:00:55.472Z,40.1
2017-11-23T06:10:55.370Z,39.4
2017-11-23T06:20:56.144Z,40.2
2017-11-23T06:30:55.836Z,40.0
2017-11-23T06:40:54.937Z,42.3
2017-11-23T06:50:55.028Z,38.9
2017-11-23T07:00:55.023Z,39.7
2017-11-23T07:10:55.077Z,39.4
2017-11-23T07:20:55.046Z,38.8
2017-11-23T07:30:55.645Z,39.2
2017-11-23T07:40:54.541Z,39.7
2017-11-23T07:50:55.954Z,41.8
2017-11-23T08:00:55.470Z,40.7
2017-11-23T08:10:55.401Z,35.2
2017-11-23T08:20:55.837Z,36.3
2017-11-23T08:30:54.929Z,39.0
2017-11-23T08:40:55.814Z,38.1
2017-11-23T08:50:55.272Z,40.4
2017-11-23T09:00:55.418Z,39.7
2017-11-23T09:10:55.330Z,40.2
2017-11-23T09:20:55.417Z,39.7
2017-11-23T09:30:55.425Z,40.2
2017-11-23T09:40:55.538Z,41.6
2017-11-23T09:50:55.645Z,40.5
2017-11-23T10:00:54.555Z,36.2
2017-11-23T10:10:56.188Z,30.8
2017-11-23T10:20:55.362Z,33.6
2017-11-23T10:30:55.253Z,31.8
2017-11-23T10:40:55.690Z,48.1
2017-11-23T10:50:54.824Z,45.5
2017-11-23T11:00:55.047Z,29.2
2017-11-23T11:10:55.168Z,31.5
2017-11-23T11:20:55.331Z,28.2
2017-11-23T11:30:55.730Z,25.1
2017-11-23T11:40:55.103Z,23.0
2017-11-23T11:50:55.050Z,23.4
2017-11-23T12:00:55.001Z,23.7
2017-11-23T12:10:55.274Z,29.2
2017-11-23T12:20:55.802Z,32.1
2017-11-23T12:30:55.355Z,35.2
2017-11-23T12:40:55.314Z,28.5
2017-11-23T12:50:55.262Z,24.9
2017-11-23T13:00:55.868Z,23.0
2017-11-23T13:10:55.002Z,20.0
2017-11-23T13:20:55.295Z,16.8
2017-11-23T13:30:55.295Z,17.0
2017-11-23T13:40:55.238Z,14.9
2017-11-23T13:50:55.211Z,16.1
2017-11-23T14:00:55.097Z,16.4
2017-11-23T14:10:55.087Z,16.4
2017-11-23T14:20:56.095Z,19.4
2017-11-23T14:30:55.584Z,16.4
2017-11-23T14:40:55.681Z,15.4
2017-11-23T14:50:54.731Z,22.0
2017-11-23T15:00:54.662Z,18.7
2017-11-23T15:10:54.640Z,22.3
2017-11-23T15:20:54.758Z,28.6
2017-11-23T15:30:54.969Z,32.2
2017-11-23T15:40:55.381Z,35.5
2017-11-23T15:50:55.711Z,36.7
2017-11-23T16:00:55.110Z,38.5
2017-11-23T16:10:55.345Z,41.0
2017-11-23T16:20:55.442Z,46.2
2017-11-23T16:30:55.633Z,47.9
2017-11-23T16:40:54.469Z,50.7
2017-11-23T16:50:55.365Z,47.5
2017-11-23T17:00:56.103Z,54.5
2017-11-23T17:10:55.505Z,57.1
2017-11-23T17:20:54.852Z,58.3
2017-11-23T17:30:55.409Z,54.2
2017-11-23T17:40:55.669Z,47.5
2017-11-23T17:50:55.358Z,61.5
2017-11-23T18:00:55.290Z,46.5
2017-11-23T18:10:55.443Z,52.1
2017-11-23T18:20:55.671Z,63.2
2017-11-23T18:30:54.552Z,62.4
2017-11-23T18:40:56.250Z,66.5
2017-11-23T18:50:55.829Z,77.3
2017-11-23T19:00:55.316Z,66.5
2017-11-23T19:10:55.867Z,74.7
2017-11-23T19:20:55.369Z,93.2
2017-11-23T19:30:55.663Z,102.0
2017-11-23T19:40:54.634Z,110.8
2017-11-23T19:50:55.916Z,101.5
2017-11-23T20:00:54.781Z,102.8
2017-11-23T20:10:55.449Z,94.0
2017-11-23T20:20:55.910Z,92.6
2017-11-23T20:30:54.973Z,88.4
2017-11-23T20:40:55.063Z,77.6
2017-11-23T20:50:54.977Z,69.3
2017-11-23T21:00:55.095Z,76.1
2017-11-23T21:10:55.317Z,87.4
2017-11-23T21:20:55.750Z,81.5
2017-11-23T21:30:55.346Z,84.9
2017-11-23T21:40:55.700Z,76.6
2017-11-23T21:50:55.616Z,73.1
2017-11-23T22:00:55.253Z,75.2
2017-11-23T22:10:55.892Z,72.2
2017-11-23T22:20:54.917Z,72.5
2017-11-23T22:30:55.271Z,65.7
2017-11-23T22:40:55.278Z,59.6
2017-11-23T22:50:55.851Z,63.6
2017-11-23T23:00:55.362Z,61.5
2017-11-23T23:11:19.616Z,64.1
2017-11-23T23:23:02.233Z,58.6
2017-11-23T23:30:55.101Z,57.2
2017-11-23T23:40:55.023Z,60.3
2017-11-23T23:50:55.030Z,61.4
